Главная страница
METAR-TAF:

METAR-TAF

Аэропорты :

Мар-дель-Плата, Аргентина

широта: 37-56S, долгота: 057-35W, высота над уровнем моря: 18 м

Текущие метеонаблюдения

Эта сводка был подготовлена 17 минут назад, в 22:00 UTC
Ветер 14 Узел от юго-юго-восточный
Температура 12°C
Влажность 82%
Давление 1024 hPa
Видимость 10 км и более
Отдельные облака на высоте 1200 фута
Отдельные облака на высоте 20000 фута

METAR: SAZM 182200Z 16014KT 9999 SCT012 SCT200 12/09 Q1024

Время: 19:17 (22:17 UTC)

Прогноз

Прогноз действительный с 18-го 19 UTC до 19-го 15 UTC
Ветер 20 Узел от юго-юго-восточный
Видимость: 5000 м
Сплошная облачность на высоте 1200 фута
дымка
изменения
С 19-го 12 UTC до 19-го 15 UTC
Ветер 15 Узел от юго-восточный
Видимость 10 км и более
Нет облачности ниже 1500 м, и нет кучево-дождевой облачности

TAF: SAZM 181915 1820/1918 16020KT 5000 BR OVC012 TX15/1918Z TN07/1911Z BECMG 1912/1915 14015KT CAVOK

Метеонаблюдения и прогнозы для более 4000 аэропортов (сводки METAR и TAF).

Имеющиеся станции представлены на карте желтыми и красными точками.

Чтобы увидеть название станции, наведите на нее мышь.

Затем щелкните, чтобы увидеть метеонаблюдения и метеопрогнозы.

Управление картой: чтобы увеличить масштаб, щелкните зеленые кнопки с черным крестиком; чтобы уменьшить масштаб, щелкните зеленую кнопку с тире; для просмотра соседних карт щелкайте зеленые стрелки.


METAR-TAF: